createdAt,value
2023-05-25T00:00:02.165Z,23.30
2023-05-25T00:01:03.342Z,23.30
2023-05-25T00:02:02.264Z,23.30
2023-05-25T00:03:02.341Z,23.30
2023-05-25T00:04:02.295Z,23.30
2023-05-25T00:05:02.230Z,23.30
2023-05-25T00:06:02.236Z,23.29
2023-05-25T00:07:02.221Z,23.29
2023-05-25T00:08:02.218Z,23.29
2023-05-25T00:09:02.220Z,23.29
2023-05-25T00:10:02.243Z,23.29
2023-05-25T00:11:02.215Z,23.29
2023-05-25T00:12:02.209Z,23.28
2023-05-25T00:13:02.204Z,23.28
2023-05-25T00:14:02.207Z,23.28
2023-05-25T00:15:02.207Z,23.28
2023-05-25T00:16:02.228Z,23.27
2023-05-25T00:17:02.249Z,23.27
2023-05-25T00:18:02.289Z,23.27
2023-05-25T00:19:02.215Z,23.27
2023-05-25T00:20:02.298Z,23.27
2023-05-25T00:21:02.204Z,23.27
2023-05-25T00:22:02.221Z,23.27
2023-05-25T00:23:02.190Z,23.27
2023-05-25T00:24:02.197Z,23.27
2023-05-25T00:25:02.218Z,23.27
2023-05-25T00:26:02.196Z,23.27
2023-05-25T00:27:02.193Z,23.27
2023-05-25T00:28:02.186Z,23.27
2023-05-25T00:29:02.190Z,23.27
2023-05-25T00:30:02.190Z,23.26
2023-05-25T00:31:02.211Z,23.26
2023-05-25T00:32:02.177Z,23.26
2023-05-25T00:33:02.277Z,23.26
2023-05-25T00:34:02.184Z,23.25
2023-05-25T00:35:02.186Z,23.26
2023-05-25T00:36:02.200Z,23.26
2023-05-25T00:37:02.188Z,23.26
2023-05-25T00:38:02.207Z,23.25
2023-05-25T00:39:02.218Z,23.25
2023-05-25T00:40:02.290Z,23.25
2023-05-25T00:41:02.214Z,23.26
2023-05-25T00:42:02.221Z,23.25
2023-05-25T00:43:02.244Z,23.25
2023-05-25T00:44:02.261Z,23.24
2023-05-25T00:45:02.244Z,23.24
2023-05-25T00:46:02.290Z,23.24
2023-05-25T00:47:02.257Z,23.24
2023-05-25T00:48:02.330Z,23.24
2023-05-25T00:49:02.275Z,23.23
2023-05-25T00:50:02.336Z,23.23
2023-05-25T00:51:02.299Z,23.22
2023-05-25T00:52:02.317Z,23.22
2023-05-25T00:53:02.353Z,23.22
2023-05-25T00:54:02.335Z,23.22
2023-05-25T00:55:02.328Z,23.22
2023-05-25T00:56:02.442Z,23.22
2023-05-25T00:57:02.359Z,23.22
2023-05-25T00:58:02.400Z,23.21
2023-05-25T00:59:02.373Z,23.22
2023-05-25T01:00:02.377Z,23.21
2023-05-25T01:01:02.386Z,23.22
2023-05-25T01:02:02.449Z,23.22
2023-05-25T01:03:02.481Z,23.21
2023-05-25T01:04:02.433Z,23.21
2023-05-25T01:05:02.423Z,23.21
2023-05-25T01:06:02.398Z,23.21
2023-05-25T01:07:02.412Z,23.20
2023-05-25T01:08:02.436Z,23.21
2023-05-25T01:09:02.419Z,23.21
2023-05-25T01:10:02.434Z,23.21
2023-05-25T01:11:02.458Z,23.21
2023-05-25T01:12:02.456Z,23.21
2023-05-25T01:13:02.473Z,23.21
2023-05-25T01:14:02.468Z,23.21
2023-05-25T01:15:02.470Z,23.20
2023-05-25T01:16:02.498Z,23.20
2023-05-25T01:17:02.505Z,23.20
2023-05-25T01:18:02.551Z,23.20
2023-05-25T01:19:02.515Z,23.20
2023-05-25T01:20:10.524Z,23.20
2023-05-25T01:21:03.571Z,23.20
2023-05-25T01:22:02.502Z,23.20
2023-05-25T01:23:02.512Z,23.20
2023-05-25T01:24:02.487Z,23.20
2023-05-25T01:25:02.483Z,23.19
2023-05-25T01:26:02.484Z,23.19
2023-05-25T01:27:02.474Z,23.19
2023-05-25T01:28:02.481Z,23.19
2023-05-25T01:29:02.449Z,23.19
2023-05-25T01:30:02.480Z,23.19
2023-05-25T01:31:02.443Z,23.18
2023-05-25T01:32:02.455Z,23.19
2023-05-25T01:33:02.458Z,23.18
2023-05-25T01:34:02.426Z,23.18
2023-05-25T01:35:02.429Z,23.18
2023-05-25T01:36:02.420Z,23.19
2023-05-25T01:37:02.413Z,23.18
2023-05-25T01:38:02.421Z,23.18
2023-05-25T01:39:02.390Z,23.18
2023-05-25T01:40:02.379Z,23.18
2023-05-25T01:41:02.371Z,23.18
2023-05-25T01:42:02.356Z,23.17
2023-05-25T01:43:02.360Z,23.17
2023-05-25T01:44:02.378Z,23.17
2023-05-25T01:45:02.369Z,23.17
2023-05-25T01:46:02.346Z,23.17
2023-05-25T01:47:02.339Z,23.17
2023-05-25T01:48:02.376Z,23.17
2023-05-25T01:49:02.337Z,23.16
2023-05-25T01:50:02.372Z,23.17
2023-05-25T01:51:02.309Z,23.17
2023-05-25T01:52:02.348Z,23.17
2023-05-25T01:53:02.300Z,23.17
2023-05-25T01:54:02.316Z,23.17
2023-05-25T01:55:02.331Z,23.17
2023-05-25T01:56:02.334Z,23.17
2023-05-25T01:57:02.368Z,23.17
2023-05-25T01:58:02.379Z,23.17
2023-05-25T01:59:02.408Z,23.16
2023-05-25T02:00:02.433Z,23.17
2023-05-25T02:01:02.437Z,23.16
2023-05-25T02:02:02.501Z,23.16
2023-05-25T02:03:02.467Z,23.16
2023-05-25T02:04:02.477Z,23.17
2023-05-25T02:05:02.462Z,23.16
2023-05-25T02:06:02.457Z,23.15
2023-05-25T02:07:02.484Z,23.16
2023-05-25T02:08:02.468Z,23.16
2023-05-25T02:09:02.480Z,23.16
2023-05-25T02:10:02.511Z,23.15
2023-05-25T02:11:02.529Z,23.16
2023-05-25T02:12:02.531Z,23.15
2023-05-25T02:13:02.539Z,23.15
2023-05-25T02:14:02.565Z,23.15
2023-05-25T02:15:02.557Z,23.15
2023-05-25T02:16:02.605Z,23.14
2023-05-25T02:17:02.594Z,23.14
2023-05-25T02:18:02.655Z,23.15
2023-05-25T02:19:02.622Z,23.15
2023-05-25T02:20:02.679Z,23.15
2023-05-25T02:21:02.659Z,23.15
2023-05-25T02:22:02.687Z,23.14
2023-05-25T02:23:02.661Z,23.14
2023-05-25T02:24:02.692Z,23.14
2023-05-25T02:25:02.694Z,23.13
2023-05-25T02:26:02.711Z,23.14
2023-05-25T02:27:02.729Z,23.14
2023-05-25T02:28:02.731Z,23.14
2023-05-25T02:29:02.756Z,23.14
2023-05-25T02:30:02.749Z,23.13
2023-05-25T02:31:02.795Z,23.13
2023-05-25T02:32:02.781Z,23.13
2023-05-25T02:33:02.864Z,23.13
2023-05-25T02:34:02.809Z,23.13
2023-05-25T02:35:02.880Z,23.13
2023-05-25T02:36:02.848Z,23.13
2023-05-25T02:37:02.851Z,23.13
2023-05-25T02:38:02.867Z,23.13
2023-05-25T02:39:02.861Z,23.13
2023-05-25T02:40:02.888Z,23.13
2023-05-25T02:41:02.973Z,23.13
2023-05-25T02:42:02.910Z,23.12
2023-05-25T02:43:02.917Z,23.13
2023-05-25T02:44:02.923Z,23.13
2023-05-25T02:45:02.932Z,23.13
2023-05-25T02:46:02.984Z,23.13
2023-05-25T02:47:03.075Z,23.12
2023-05-25T02:48:02.998Z,23.12
2023-05-25T02:49:02.997Z,23.13
2023-05-25T02:50:02.992Z,23.12
2023-05-25T02:51:03.023Z,23.12
2023-05-25T02:52:03.043Z,23.12
2023-05-25T02:53:03.045Z,23.12
2023-05-25T02:54:03.069Z,23.13
2023-05-25T02:55:03.071Z,23.12
2023-05-25T02:56:03.097Z,23.12
2023-05-25T02:57:03.149Z,23.12
2023-05-25T02:58:03.116Z,23.12
2023-05-25T02:59:03.153Z,23.12
2023-05-25T03:00:03.150Z,23.11
2023-05-25T03:01:03.213Z,23.12
2023-05-25T03:02:03.186Z,23.12
2023-05-25T03:03:03.278Z,23.11
2023-05-25T03:04:03.445Z,23.12
2023-05-25T03:05:04.632Z,23.11
2023-05-25T03:06:03.216Z,23.12
2023-05-25T03:07:03.228Z,23.11
2023-05-25T03:08:03.248Z,23.11
2023-05-25T03:09:03.260Z,23.11
2023-05-25T03:10:03.274Z,23.11
2023-05-25T03:11:03.273Z,23.11
2023-05-25T03:12:03.309Z,23.11
2023-05-25T03:13:03.326Z,23.11
2023-05-25T03:14:03.348Z,23.11
2023-05-25T03:15:03.365Z,23.10
2023-05-25T03:16:03.366Z,23.10
2023-05-25T03:17:03.456Z,23.10
2023-05-25T03:18:03.431Z,23.10
2023-05-25T03:19:03.418Z,23.10
2023-05-25T03:20:03.462Z,23.11
2023-05-25T03:21:03.495Z,23.10
2023-05-25T03:22:03.445Z,23.10
2023-05-25T03:23:03.468Z,23.11
2023-05-25T03:24:03.492Z,23.10
2023-05-25T03:25:03.499Z,23.10
2023-05-25T03:26:03.501Z,23.09
2023-05-25T03:27:03.512Z,23.09
2023-05-25T03:28:03.530Z,23.11
2023-05-25T03:29:03.554Z,23.10
2023-05-25T03:30:03.566Z,23.10
2023-05-25T03:31:03.569Z,23.10
2023-05-25T03:32:03.603Z,23.09
2023-05-25T03:33:03.665Z,23.10
2023-05-25T03:34:03.621Z,23.09
2023-05-25T03:35:03.615Z,23.09
2023-05-25T03:36:03.620Z,23.08
2023-05-25T03:37:03.634Z,23.09
2023-05-25T03:38:03.660Z,23.09
2023-05-25T03:39:03.676Z,23.09
2023-05-25T03:40:03.686Z,23.09
2023-05-25T03:41:03.698Z,23.09
2023-05-25T03:42:03.720Z,23.09
2023-05-25T03:43:03.738Z,23.09
2023-05-25T03:44:03.766Z,23.08
2023-05-25T03:45:03.777Z,23.08
2023-05-25T03:46:03.823Z,23.08
2023-05-25T03:47:03.801Z,23.08
2023-05-25T03:48:03.872Z,23.08
2023-05-25T03:49:03.847Z,23.08
2023-05-25T03:50:03.853Z,23.08
2023-05-25T03:51:03.870Z,23.08
2023-05-25T03:52:03.896Z,23.07
2023-05-25T03:53:03.908Z,23.08
2023-05-25T03:54:03.916Z,23.08
2023-05-25T03:55:03.957Z,23.08
2023-05-25T03:56:03.950Z,23.08
2023-05-25T03:57:03.965Z,23.08
2023-05-25T03:58:03.992Z,23.08
2023-05-25T03:59:04.005Z,23.07
2023-05-25T04:00:04.016Z,23.07
2023-05-25T04:01:05.333Z,23.08
2023-05-25T04:02:04.051Z,23.07
2023-05-25T04:03:04.150Z,23.07
2023-05-25T04:04:04.115Z,23.07
2023-05-25T04:05:04.088Z,23.07
2023-05-25T04:06:04.110Z,23.08
2023-05-25T04:07:04.132Z,23.08
2023-05-25T04:08:04.184Z,23.07
2023-05-25T04:09:04.154Z,23.07
2023-05-25T04:10:04.181Z,23.07
2023-05-25T04:11:04.186Z,23.08
2023-05-25T04:12:04.209Z,23.08
2023-05-25T04:13:04.227Z,23.08
2023-05-25T04:14:04.241Z,23.07
2023-05-25T04:15:04.249Z,23.08
2023-05-25T04:16:04.297Z,23.08
2023-05-25T04:17:04.272Z,23.07
2023-05-25T04:18:04.339Z,23.07
2023-05-25T04:19:04.301Z,23.07
2023-05-25T04:20:04.343Z,23.07
2023-05-25T04:21:04.331Z,23.07
2023-05-25T04:22:04.337Z,23.07
2023-05-25T04:23:04.423Z,23.07
2023-05-25T04:24:04.379Z,23.07
2023-05-25T04:25:04.397Z,23.07
2023-05-25T04:26:04.404Z,23.07
2023-05-25T04:27:04.422Z,23.07
2023-05-25T04:28:04.439Z,23.07
2023-05-25T04:29:04.459Z,23.07
2023-05-25T04:30:04.463Z,23.07
2023-05-25T04:31:04.482Z,23.07
2023-05-25T04:32:04.699Z,23.07
2023-05-25T04:33:04.572Z,23.07
2023-05-25T04:34:04.538Z,23.07
2023-05-25T04:35:04.570Z,23.07
2023-05-25T04:36:04.565Z,23.06
2023-05-25T04:37:04.585Z,23.07
2023-05-25T04:38:04.603Z,23.07
2023-05-25T04:39:04.618Z,23.07
2023-05-25T04:40:04.713Z,23.06
2023-05-25T04:41:04.663Z,23.06
2023-05-25T04:42:05.056Z,23.07
2023-05-25T04:43:04.701Z,23.07
2023-05-25T04:44:09.621Z,23.07
2023-05-25T04:45:05.697Z,23.06
2023-05-25T04:46:04.707Z,23.06
2023-05-25T04:47:04.668Z,23.06
2023-05-25T04:48:04.698Z,23.06
2023-05-25T04:49:04.655Z,23.06
2023-05-25T04:50:04.654Z,23.06
2023-05-25T04:51:04.691Z,23.06
2023-05-25T04:52:04.657Z,23.06
2023-05-25T04:53:04.616Z,23.06
2023-05-25T04:54:04.633Z,23.06
2023-05-25T04:55:04.618Z,23.06
2023-05-25T04:56:04.605Z,23.06
2023-05-25T04:57:04.624Z,23.06
2023-05-25T04:58:04.612Z,23.06
2023-05-25T04:59:04.596Z,23.07
2023-05-25T05:00:04.593Z,23.07
2023-05-25T05:01:04.612Z,23.08
2023-05-25T05:02:04.565Z,23.08
2023-05-25T05:03:04.660Z,23.07
2023-05-25T05:04:04.713Z,23.08
2023-05-25T05:05:04.541Z,23.07
2023-05-25T05:06:04.540Z,23.08
2023-05-25T05:07:04.530Z,23.08
2023-05-25T05:08:04.541Z,23.08
2023-05-25T05:09:04.546Z,23.08
2023-05-25T05:10:04.561Z,23.08
2023-05-25T05:11:04.529Z,23.08
2023-05-25T05:12:04.539Z,23.08
2023-05-25T05:13:04.517Z,23.09
2023-05-25T05:14:04.525Z,23.08
2023-05-25T05:15:04.540Z,23.09
2023-05-25T05:16:04.575Z,23.09
2023-05-25T05:17:04.687Z,23.08
2023-05-25T05:18:04.623Z,23.09
2023-05-25T05:19:04.609Z,23.09
2023-05-25T05:20:04.660Z,23.09
2023-05-25T05:21:04.614Z,23.09
2023-05-25T05:22:04.636Z,23.09
2023-05-25T05:23:04.659Z,23.09
2023-05-25T05:24:04.659Z,23.09
2023-05-25T05:25:04.674Z,23.09
2023-05-25T05:26:04.742Z,23.09
2023-05-25T05:27:05.012Z,23.10
2023-05-25T05:28:04.735Z,23.10
2023-05-25T05:29:04.752Z,23.07
2023-05-25T05:30:04.772Z,23.04
2023-05-25T05:31:04.815Z,23.01
2023-05-25T05:32:04.806Z,23.02
2023-05-25T05:33:04.834Z,23.02
2023-05-25T05:34:04.841Z,23.01
2023-05-25T05:35:04.824Z,23.04
2023-05-25T05:36:04.823Z,23.07
2023-05-25T05:37:04.858Z,23.11
2023-05-25T05:38:04.874Z,23.13
2023-05-25T05:39:04.877Z,23.13
2023-05-25T05:40:04.976Z,23.15
2023-05-25T05:41:04.914Z,23.19
2023-05-25T05:42:04.929Z,23.22
2023-05-25T05:43:04.926Z,23.27
2023-05-25T05:44:05.053Z,23.28
2023-05-25T05:45:04.903Z,23.32
2023-05-25T05:46:04.923Z,23.35
2023-05-25T05:47:04.913Z,23.38
2023-05-25T05:48:04.977Z,23.41
2023-05-25T05:49:04.947Z,23.45
2023-05-25T05:50:05.008Z,23.48
2023-05-25T05:51:05.053Z,23.49
2023-05-25T05:52:05.115Z,23.51
2023-05-25T05:53:05.169Z,23.53
2023-05-25T05:54:05.261Z,23.57
2023-05-25T05:55:05.293Z,23.60
2023-05-25T05:56:05.355Z,23.59
2023-05-25T05:57:05.416Z,23.61
2023-05-25T05:58:05.489Z,23.66
2023-05-25T05:59:05.538Z,23.69
2023-05-25T06:00:05.597Z,23.72
2023-05-25T06:01:05.640Z,23.76
2023-05-25T06:02:05.684Z,23.78
2023-05-25T06:03:05.743Z,23.81
2023-05-25T06:04:05.767Z,23.84
2023-05-25T06:05:05.796Z,23.85
2023-05-25T06:06:05.918Z,23.86
2023-05-25T06:07:05.881Z,23.88
2023-05-25T06:08:06.197Z,23.90
2023-05-25T06:09:05.898Z,23.92
2023-05-25T06:10:05.916Z,23.93
2023-05-25T06:11:05.951Z,23.95
2023-05-25T06:12:05.950Z,23.97
2023-05-25T06:13:05.968Z,23.98
2023-05-25T06:14:05.992Z,23.99
2023-05-25T06:15:05.999Z,24.00
2023-05-25T06:16:06.090Z,24.02
2023-05-25T06:17:06.135Z,24.03
2023-05-25T06:18:06.144Z,24.04
2023-05-25T06:19:06.075Z,24.06
2023-05-25T06:20:06.082Z,24.07
2023-05-25T06:21:06.065Z,24.09
2023-05-25T06:22:06.045Z,24.10
2023-05-25T06:23:06.061Z,24.11
2023-05-25T06:24:06.045Z,24.12
2023-05-25T06:25:06.055Z,24.14
2023-05-25T06:26:06.042Z,24.16
2023-05-25T06:27:06.035Z,24.18
2023-05-25T06:28:06.030Z,24.17
2023-05-25T06:29:06.035Z,24.20
2023-05-25T06:30:06.040Z,24.23
2023-05-25T06:31:06.060Z,24.24
2023-05-25T06:32:06.198Z,24.25
2023-05-25T06:33:06.085Z,24.23
2023-05-25T06:34:06.560Z,24.19
2023-05-25T06:35:08.026Z,24.15
2023-05-25T06:36:06.072Z,24.18
2023-05-25T06:37:06.079Z,24.15
2023-05-25T06:38:06.058Z,24.17
2023-05-25T06:39:06.081Z,23.98
2023-05-25T06:40:06.102Z,23.68
2023-05-25T06:41:06.140Z,23.30
2023-05-25T06:42:06.175Z,23.13
2023-05-25T06:43:06.239Z,23.07
2023-05-25T06:44:06.233Z,23.08
2023-05-25T06:45:06.224Z,23.11
2023-05-25T06:46:06.224Z,23.15
2023-05-25T06:47:06.202Z,23.18
2023-05-25T06:48:06.322Z,23.20
2023-05-25T06:49:06.212Z,23.24
2023-05-25T06:50:06.218Z,23.29
2023-05-25T06:51:06.259Z,23.32
2023-05-25T06:52:06.329Z,23.36
2023-05-25T06:53:06.361Z,23.39
2023-05-25T06:54:06.569Z,23.42
2023-05-25T06:55:06.494Z,23.46
2023-05-25T06:56:06.558Z,23.47
2023-05-25T06:57:06.678Z,23.51
2023-05-25T06:58:06.649Z,23.53
2023-05-25T06:59:07.096Z,23.56
2023-05-25T07:00:06.754Z,23.55
2023-05-25T07:01:06.827Z,23.51
2023-05-25T07:02:06.860Z,23.43
2023-05-25T07:03:07.016Z,23.25
2023-05-25T07:04:07.041Z,23.12
2023-05-25T07:05:07.053Z,23.03
2023-05-25T07:06:06.994Z,22.99
2023-05-25T07:07:07.003Z,22.95
2023-05-25T07:08:06.988Z,22.93
2023-05-25T07:09:07.013Z,22.93
2023-05-25T07:10:06.992Z,22.94
2023-05-25T07:11:06.987Z,22.92
2023-05-25T07:12:07.004Z,22.92
2023-05-25T07:13:06.998Z,22.93
2023-05-25T07:14:07.080Z,23.00
2023-05-25T07:15:06.994Z,23.08
2023-05-25T07:16:07.123Z,23.10
2023-05-25T07:17:06.986Z,23.01
2023-05-25T07:18:07.031Z,22.88
2023-05-25T07:19:07.120Z,22.68
2023-05-25T07:20:07.046Z,22.58
2023-05-25T07:21:07.018Z,22.44
2023-05-25T07:22:07.013Z,22.33
2023-05-25T07:23:07.016Z,22.23
2023-05-25T07:24:07.101Z,22.07
2023-05-25T07:25:07.086Z,21.98
2023-05-25T07:26:07.118Z,21.97
2023-05-25T07:27:07.165Z,21.89
2023-05-25T07:28:07.214Z,21.91
2023-05-25T07:29:07.596Z,21.93
2023-05-25T07:30:07.351Z,21.94
2023-05-25T07:31:07.460Z,21.95
2023-05-25T07:32:07.473Z,22.04
2023-05-25T07:33:07.625Z,22.22
2023-05-25T07:34:07.561Z,22.41
2023-05-25T07:35:07.591Z,22.61
2023-05-25T07:36:07.589Z,22.79
2023-05-25T07:37:07.620Z,22.95
2023-05-25T07:38:07.611Z,23.11
2023-05-25T07:39:08.103Z,23.24
2023-05-25T07:40:07.678Z,23.38
2023-05-25T07:41:07.735Z,23.51
2023-05-25T07:42:07.786Z,23.63
2023-05-25T07:43:08.575Z,23.75
2023-05-25T07:44:08.095Z,23.85
2023-05-25T07:45:07.846Z,23.96
2023-05-25T07:46:07.858Z,24.05
2023-05-25T07:47:08.047Z,24.12
2023-05-25T07:48:07.956Z,24.19
2023-05-25T07:49:07.926Z,24.26
2023-05-25T07:50:07.940Z,24.33
2023-05-25T07:51:08.018Z,24.40
2023-05-25T07:52:08.046Z,24.46
2023-05-25T07:53:08.111Z,24.51
2023-05-25T07:54:08.149Z,24.58
2023-05-25T07:55:08.229Z,24.63
2023-05-25T07:56:10.537Z,24.66
2023-05-25T07:57:08.314Z,24.70
2023-05-25T07:58:08.334Z,24.75
2023-05-25T07:59:08.630Z,24.78
2023-05-25T08:00:08.386Z,24.82
2023-05-25T08:01:08.430Z,24.85
2023-05-25T08:02:08.453Z,24.86
2023-05-25T08:03:08.550Z,24.86
2023-05-25T08:04:08.731Z,24.88
2023-05-25T08:05:08.555Z,24.88
2023-05-25T08:06:08.509Z,24.88
2023-05-25T08:07:08.534Z,24.89
2023-05-25T08:08:08.532Z,24.92
2023-05-25T08:09:08.623Z,24.96
2023-05-25T08:10:08.573Z,24.98
2023-05-25T08:11:08.596Z,25.01
2023-05-25T08:12:30.577Z,25.05
2023-05-25T08:13:09.584Z,25.09
2023-05-25T08:14:08.605Z,25.12
2023-05-25T08:15:08.568Z,25.16
2023-05-25T08:16:08.561Z,25.19
2023-05-25T08:17:08.634Z,25.19
2023-05-25T08:18:08.583Z,25.21
2023-05-25T08:19:08.616Z,25.24
2023-05-25T08:20:08.553Z,25.24
2023-05-25T08:21:08.534Z,25.18
2023-05-25T08:22:08.525Z,25.08
2023-05-25T08:23:08.503Z,25.03
2023-05-25T08:24:08.665Z,24.98
2023-05-25T08:25:08.540Z,24.97
2023-05-25T08:26:28.649Z,24.97
2023-05-25T08:27:09.476Z,24.97
2023-05-25T08:28:08.487Z,24.98
2023-05-25T08:29:08.470Z,25.01
2023-05-25T08:30:08.482Z,25.03
2023-05-25T08:31:08.558Z,25.06
2023-05-25T08:32:08.447Z,25.06
2023-05-25T08:33:08.448Z,25.09
2023-05-25T08:34:08.435Z,25.10
2023-05-25T08:35:08.455Z,25.11
2023-05-25T08:36:08.420Z,25.11
2023-05-25T08:37:08.431Z,25.03
2023-05-25T08:38:08.413Z,24.99
2023-05-25T08:39:08.400Z,24.98
2023-05-25T08:40:08.420Z,24.98
2023-05-25T08:41:08.415Z,25.01
2023-05-25T08:42:08.368Z,25.08
2023-05-25T08:43:08.360Z,25.15
2023-05-25T08:44:08.376Z,25.20
2023-05-25T08:45:10.789Z,25.21
2023-05-25T08:46:08.402Z,25.25
2023-05-25T08:47:08.334Z,25.27
2023-05-25T08:48:08.480Z,25.28
2023-05-25T08:49:08.412Z,25.30
2023-05-25T08:50:08.322Z,25.33
2023-05-25T08:51:10.278Z,25.33
2023-05-25T08:52:08.419Z,25.32
2023-05-25T08:53:08.399Z,25.32
2023-05-25T08:54:08.389Z,25.30
2023-05-25T08:55:08.441Z,25.31
2023-05-25T08:56:08.413Z,25.32
2023-05-25T08:57:08.381Z,25.34
2023-05-25T08:58:08.379Z,25.34
2023-05-25T08:59:08.640Z,25.32
2023-05-25T09:00:08.392Z,25.30
2023-05-25T09:01:08.382Z,25.32
2023-05-25T09:02:08.472Z,25.36
2023-05-25T09:03:08.452Z,25.37
2023-05-25T09:04:08.398Z,25.38
2023-05-25T09:05:08.377Z,25.39
2023-05-25T09:06:08.390Z,25.40
2023-05-25T09:07:10.958Z,25.40
2023-05-25T09:08:08.361Z,25.39
2023-05-25T09:09:08.343Z,25.38
2023-05-25T09:10:08.344Z,25.40
2023-05-25T09:11:09.961Z,25.42
2023-05-25T09:12:08.324Z,25.40
2023-05-25T09:14:08.334Z,25.38
2023-05-25T09:15:08.313Z,25.37
2023-05-25T09:16:08.319Z,25.37
2023-05-25T09:17:08.304Z,25.37
2023-05-25T09:18:09.126Z,25.38
2023-05-25T09:19:08.650Z,25.36
2023-05-25T09:20:08.301Z,25.37
2023-05-25T09:21:08.342Z,25.37
2023-05-25T09:22:15.722Z,25.39
2023-05-25T09:23:09.271Z,25.41
2023-05-25T09:24:08.632Z,25.41
2023-05-25T09:25:08.271Z,25.42
2023-05-25T09:26:08.260Z,25.42
2023-05-25T09:27:08.254Z,25.38
2023-05-25T09:28:24.745Z,25.34
2023-05-25T09:29:09.242Z,25.30
2023-05-25T09:30:08.234Z,25.19
2023-05-25T09:31:08.243Z,25.15
2023-05-25T09:32:08.284Z,25.16
2023-05-25T09:33:08.276Z,25.11
2023-05-25T09:34:08.653Z,25.03
2023-05-25T09:35:08.200Z,25.04
2023-05-25T09:36:08.177Z,25.04
2023-05-25T09:37:08.346Z,24.99
2023-05-25T09:38:08.269Z,24.91
2023-05-25T09:39:08.210Z,24.79
2023-05-25T09:40:08.149Z,24.70
2023-05-25T09:41:08.155Z,24.66
2023-05-25T09:42:08.148Z,24.64
2023-05-25T09:43:08.145Z,24.61
2023-05-25T09:44:11.824Z,24.61
2023-05-25T09:45:08.123Z,24.60
2023-05-25T09:46:08.160Z,24.61
2023-05-25T09:47:08.192Z,24.63
2023-05-25T09:48:08.175Z,24.63
2023-05-25T09:49:08.166Z,24.64
2023-05-25T09:50:08.097Z,24.63
2023-05-25T09:51:08.096Z,24.63
2023-05-25T09:52:08.111Z,24.63
2023-05-25T09:53:08.074Z,24.63
2023-05-25T09:54:08.079Z,24.62
2023-05-25T09:55:08.062Z,24.60
2023-05-25T09:56:08.038Z,24.59
2023-05-25T09:57:08.028Z,24.58
2023-05-25T09:58:08.056Z,24.57
2023-05-25T09:59:08.151Z,24.56
2023-05-25T10:00:08.034Z,24.56
2023-05-25T10:01:08.069Z,24.46
2023-05-25T10:02:08.014Z,24.42
2023-05-25T10:03:08.152Z,24.41
2023-05-25T10:04:08.185Z,24.43
2023-05-25T10:05:08.049Z,24.42
2023-05-25T10:06:07.988Z,24.43
2023-05-25T10:07:07.975Z,24.43
2023-05-25T10:08:08.020Z,24.44
2023-05-25T10:09:08.028Z,24.43
2023-05-25T10:10:08.077Z,24.43
2023-05-25T10:11:08.157Z,24.43
2023-05-25T10:12:08.220Z,24.43
2023-05-25T10:13:08.277Z,24.43
2023-05-25T10:14:08.318Z,24.42
2023-05-25T10:15:08.357Z,24.41
2023-05-25T10:16:08.451Z,24.39
2023-05-25T10:17:08.475Z,24.40
2023-05-25T10:18:08.572Z,24.41
2023-05-25T10:19:08.682Z,24.41
2023-05-25T10:20:08.816Z,24.41
2023-05-25T10:21:08.773Z,24.41
2023-05-25T10:22:08.792Z,24.40
2023-05-25T10:23:08.829Z,24.36
2023-05-25T10:24:09.177Z,24.35
2023-05-25T10:25:08.889Z,24.38
2023-05-25T10:26:09.375Z,24.46
2023-05-25T10:27:25.215Z,24.54
2023-05-25T10:28:10.028Z,24.60
2023-05-25T10:29:09.021Z,24.68
2023-05-25T10:30:09.037Z,24.73
2023-05-25T10:31:09.037Z,24.78
2023-05-25T10:32:09.055Z,24.85
2023-05-25T10:33:09.044Z,24.92
2023-05-25T10:34:09.170Z,24.98
2023-05-25T10:35:08.977Z,25.05
2023-05-25T10:36:11.212Z,25.10
2023-05-25T10:37:09.125Z,25.14
2023-05-25T10:38:09.124Z,25.18
2023-05-25T10:39:09.302Z,25.22
2023-05-25T10:40:09.124Z,25.29
2023-05-25T10:41:09.147Z,25.34
2023-05-25T10:42:09.141Z,25.37
2023-05-25T10:43:09.140Z,25.39
2023-05-25T10:44:09.149Z,25.41
2023-05-25T10:45:09.160Z,25.42
2023-05-25T10:46:09.150Z,25.37
2023-05-25T10:47:09.201Z,25.28
2023-05-25T10:48:09.173Z,25.20
2023-05-25T10:49:09.190Z,25.17
2023-05-25T10:50:09.157Z,25.11
2023-05-25T10:51:11.114Z,25.06
2023-05-25T10:52:09.159Z,25.01
2023-05-25T10:53:09.163Z,24.87
2023-05-25T10:54:09.176Z,24.81
2023-05-25T10:55:09.151Z,24.77
2023-05-25T10:56:09.141Z,24.71
2023-05-25T10:57:09.129Z,24.64
2023-05-25T10:58:09.110Z,24.63
2023-05-25T10:59:09.176Z,24.66
2023-05-25T11:00:09.107Z,24.61
2023-05-25T11:01:09.205Z,24.49
2023-05-25T11:02:09.432Z,24.47
2023-05-25T11:03:09.161Z,24.45
2023-05-25T11:04:09.216Z,24.44
2023-05-25T11:05:09.085Z,24.43
2023-05-25T11:06:09.076Z,24.46
2023-05-25T11:07:09.079Z,24.47
2023-05-25T11:08:09.193Z,24.44
2023-05-25T11:09:09.077Z,24.39
2023-05-25T11:10:09.059Z,24.38
2023-05-25T11:11:09.046Z,24.40
2023-05-25T11:12:09.049Z,24.45
2023-05-25T11:13:09.019Z,24.50
2023-05-25T11:14:09.021Z,24.57
2023-05-25T11:15:09.029Z,24.60
2023-05-25T11:16:09.013Z,24.61
2023-05-25T11:17:09.099Z,24.64
2023-05-25T11:18:09.056Z,24.63
2023-05-25T11:19:08.993Z,24.59
2023-05-25T11:20:09.042Z,24.51
2023-05-25T11:21:08.981Z,24.45
2023-05-25T11:22:08.958Z,24.33
2023-05-25T11:23:08.959Z,24.29
2023-05-25T11:24:08.961Z,24.32
2023-05-25T11:25:08.959Z,24.32
2023-05-25T11:26:08.940Z,24.34
2023-05-25T11:27:09.707Z,24.39
2023-05-25T11:28:09.005Z,24.43
2023-05-25T11:29:08.948Z,24.46
2023-05-25T11:30:08.929Z,24.50
2023-05-25T11:31:08.976Z,24.54
2023-05-25T11:32:08.919Z,24.57
2023-05-25T11:33:09.018Z,24.60
2023-05-25T11:34:08.946Z,24.62
2023-05-25T11:35:09.004Z,24.65
2023-05-25T11:36:09.021Z,24.67
2023-05-25T11:37:10.329Z,24.70
2023-05-25T11:38:09.245Z,24.73
2023-05-25T11:39:20.410Z,24.76
2023-05-25T11:40:10.262Z,24.78
2023-05-25T11:41:09.247Z,24.80
2023-05-25T11:42:09.227Z,24.82
2023-05-25T11:43:09.231Z,24.84
2023-05-25T11:44:09.214Z,24.85
2023-05-25T11:45:09.203Z,24.86
2023-05-25T11:46:09.246Z,24.87
2023-05-25T11:47:09.209Z,24.88
2023-05-25T11:48:09.257Z,24.88
2023-05-25T11:49:09.228Z,24.90
2023-05-25T11:50:09.168Z,24.90
2023-05-25T11:51:09.203Z,24.91
2023-05-25T11:52:09.187Z,24.92
2023-05-25T11:53:09.150Z,24.92
2023-05-25T11:54:09.145Z,24.93
2023-05-25T11:55:09.151Z,24.94
2023-05-25T11:56:09.152Z,24.94
2023-05-25T11:57:09.141Z,24.95
2023-05-25T11:58:09.136Z,24.96
2023-05-25T11:59:09.154Z,24.96
2023-05-25T12:00:09.119Z,24.96
2023-05-25T12:01:09.099Z,24.97
2023-05-25T12:02:09.091Z,24.98
2023-05-25T12:03:09.160Z,24.97
2023-05-25T12:04:09.315Z,24.98
2023-05-25T12:05:10.906Z,24.98
2023-05-25T12:06:09.134Z,24.99
2023-05-25T12:07:09.144Z,24.98
2023-05-25T12:08:09.122Z,24.98
2023-05-25T12:09:09.135Z,24.98
2023-05-25T12:10:09.191Z,24.98
2023-05-25T12:11:09.187Z,24.98
2023-05-25T12:12:09.232Z,24.98
2023-05-25T12:13:09.163Z,24.97
2023-05-25T12:14:09.183Z,24.98
2023-05-25T12:15:09.208Z,24.98
2023-05-25T12:16:09.194Z,24.98
2023-05-25T12:17:09.280Z,24.98
2023-05-25T12:18:09.340Z,24.98
2023-05-25T12:19:09.247Z,24.98
2023-05-25T12:20:09.333Z,24.97
2023-05-25T12:21:09.262Z,24.97
2023-05-25T12:22:09.256Z,24.97
2023-05-25T12:23:09.257Z,24.97
2023-05-25T12:24:09.268Z,24.97
2023-05-25T12:25:09.298Z,24.97
2023-05-25T12:26:09.303Z,24.96
2023-05-25T12:27:09.324Z,24.97
2023-05-25T12:28:09.330Z,24.96
2023-05-25T12:29:09.321Z,24.96
2023-05-25T12:30:09.352Z,24.97
2023-05-25T12:31:09.363Z,24.96
2023-05-25T12:32:09.339Z,24.96
2023-05-25T12:33:09.411Z,24.96
2023-05-25T12:34:09.374Z,24.96
2023-05-25T12:35:09.382Z,24.96
2023-05-25T12:36:09.413Z,24.96
2023-05-25T12:37:09.412Z,24.96
2023-05-25T12:38:09.448Z,24.96
2023-05-25T12:39:09.442Z,24.97
2023-05-25T12:40:09.448Z,24.94
2023-05-25T12:41:09.473Z,24.95
2023-05-25T12:42:09.486Z,24.97
2023-05-25T12:43:09.498Z,24.99
2023-05-25T12:44:09.544Z,25.00
2023-05-25T12:45:09.535Z,25.02
2023-05-25T12:46:09.563Z,25.03
2023-05-25T12:47:09.517Z,25.05
2023-05-25T12:48:09.613Z,25.06
2023-05-25T12:49:09.542Z,25.07
2023-05-25T12:50:09.588Z,25.09
2023-05-25T12:51:09.548Z,25.09
2023-05-25T12:52:09.529Z,25.10
2023-05-25T12:53:09.586Z,25.11